sensor_id;sensor_type;location;lat;lon;timestamp;pressure;altitude;pressure_sealevel;temperature;humidity
50292;BME280;36190;54.980;73.388;2024-03-06T00:00:41;100278.88;;;-7.92;79.32
50292;BME280;36190;54.980;73.388;2024-03-06T00:03:08;100280.59;;;-7.92;79.20
50292;BME280;36190;54.980;73.388;2024-03-06T00:05:36;100282.25;;;-7.90;79.15
50292;BME280;36190;54.980;73.388;2024-03-06T00:08:04;100278.78;;;-7.90;79.04
50292;BME280;36190;54.980;73.388;2024-03-06T00:10:32;100279.63;;;-7.88;79.05
50292;BME280;36190;54.980;73.388;2024-03-06T00:13:01;100280.56;;;-7.91;78.93
50292;BME280;36190;54.980;73.388;2024-03-06T00:15:29;100283.94;;;-7.89;78.87
50292;BME280;36190;54.980;73.388;2024-03-06T00:17:57;100290.81;;;-7.88;78.65
50292;BME280;36190;54.980;73.388;2024-03-06T00:20:26;100289.97;;;-7.88;78.45
50292;BME280;36190;54.980;73.388;2024-03-06T00:22:54;100295.25;;;-7.91;78.36
50292;BME280;36190;54.980;73.388;2024-03-06T00:25:21;100286.56;;;-7.90;78.33
50292;BME280;36190;54.980;73.388;2024-03-06T00:27:49;100287.38;;;-7.88;78.21
50292;BME280;36190;54.980;73.388;2024-03-06T00:30:19;100284.72;;;-7.87;78.25
50292;BME280;36190;54.980;73.388;2024-03-06T00:32:46;100287.25;;;-7.85;78.02
50292;BME280;36190;54.980;73.388;2024-03-06T00:35:14;100283.00;;;-7.86;77.72
50292;BME280;36190;54.980;73.388;2024-03-06T00:37:42;100282.88;;;-7.83;77.77
50292;BME280;36190;54.980;73.388;2024-03-06T00:40:11;100293.03;;;-7.77;77.59
50292;BME280;36190;54.980;73.388;2024-03-06T00:42:39;100289.53;;;-7.76;77.31
50292;BME280;36190;54.980;73.388;2024-03-06T00:45:08;100289.81;;;-7.83;77.23
50292;BME280;36190;54.980;73.388;2024-03-06T00:47:37;100290.25;;;-7.97;76.79
50292;BME280;36190;54.980;73.388;2024-03-06T00:50:06;100293.97;;;-8.05;76.81
50292;BME280;36190;54.980;73.388;2024-03-06T00:52:33;100295.88;;;-8.10;76.95
50292;BME280;36190;54.980;73.388;2024-03-06T00:55:01;100288.88;;;-8.08;77.19
50292;BME280;36190;54.980;73.388;2024-03-06T00:57:29;100298.47;;;-8.10;77.15
50292;BME280;36190;54.980;73.388;2024-03-06T00:59:56;100284.88;;;-8.17;77.00
50292;BME280;36190;54.980;73.388;2024-03-06T01:02:24;100287.56;;;-8.20;76.99
50292;BME280;36190;54.980;73.388;2024-03-06T01:04:53;100288.50;;;-8.22;76.82
50292;BME280;36190;54.980;73.388;2024-03-06T01:07:22;100291.19;;;-8.25;76.85
50292;BME280;36190;54.980;73.388;2024-03-06T01:09:50;100288.72;;;-8.29;76.85
50292;BME280;36190;54.980;73.388;2024-03-06T01:12:18;100293.97;;;-8.32;76.71
50292;BME280;36190;54.980;73.388;2024-03-06T01:14:45;100295.94;;;-8.38;76.86
50292;BME280;36190;54.980;73.388;2024-03-06T01:17:13;100293.50;;;-8.43;76.77
50292;BME280;36190;54.980;73.388;2024-03-06T01:19:41;100292.69;;;-8.45;76.81
50292;BME280;36190;54.980;73.388;2024-03-06T01:22:12;100297.06;;;-8.47;76.74
50292;BME280;36190;54.980;73.388;2024-03-06T01:24:40;100303.31;;;-8.53;76.80
50292;BME280;36190;54.980;73.388;2024-03-06T01:27:08;100302.56;;;-8.57;76.69
50292;BME280;36190;54.980;73.388;2024-03-06T01:29:35;100314.81;;;-8.62;76.69
50292;BME280;36190;54.980;73.388;2024-03-06T01:32:03;100322.81;;;-8.71;76.66
50292;BME280;36190;54.980;73.388;2024-03-06T01:34:31;100316.09;;;-8.77;76.83
50292;BME280;36190;54.980;73.388;2024-03-06T01:36:59;100317.78;;;-8.76;76.99
50292;BME280;36190;54.980;73.388;2024-03-06T01:39:28;100326.25;;;-8.69;76.90
50292;BME280;36190;54.980;73.388;2024-03-06T01:41:56;100322.66;;;-8.65;76.80
50292;BME280;36190;54.980;73.388;2024-03-06T01:44:23;100319.16;;;-8.64;76.73
50292;BME280;36190;54.980;73.388;2024-03-06T01:46:51;100326.00;;;-8.61;76.55
50292;BME280;36190;54.980;73.388;2024-03-06T01:49:19;100336.25;;;-8.58;76.44
50292;BME280;36190;54.980;73.388;2024-03-06T01:51:49;100283.91;;;-8.95;76.26
50292;BME280;36190;54.980;73.388;2024-03-06T01:54:17;100338.75;;;-8.55;76.10
50292;BME280;36190;54.980;73.388;2024-03-06T01:56:47;100331.72;;;-8.51;76.04
50292;BME280;36190;54.980;73.388;2024-03-06T01:59:17;100327.47;;;-8.52;75.94
50292;BME280;36190;54.980;73.388;2024-03-06T02:01:46;100333.38;;;-8.50;75.88
50292;BME280;36190;54.980;73.388;2024-03-06T02:04:14;100332.56;;;-8.51;75.77
50292;BME280;36190;54.980;73.388;2024-03-06T02:06:44;100332.56;;;-8.51;75.61
50292;BME280;36190;54.980;73.388;2024-03-06T02:09:12;100325.63;;;-8.50;75.58
50292;BME280;36190;54.980;73.388;2024-03-06T02:11:41;100333.28;;;-8.47;75.49
50292;BME280;36190;54.980;73.388;2024-03-06T02:14:10;100331.44;;;-8.44;75.39
50292;BME280;36190;54.980;73.388;2024-03-06T02:16:37;100340.91;;;-8.43;75.42
50292;BME280;36190;54.980;73.388;2024-03-06T02:19:06;100338.28;;;-8.41;75.56
50292;BME280;36190;54.980;73.388;2024-03-06T02:21:35;100333.69;;;-8.33;75.58
50292;BME280;36190;54.980;73.388;2024-03-06T02:24:04;100340.50;;;-8.29;75.25
50292;BME280;36190;54.980;73.388;2024-03-06T02:26:31;100342.09;;;-8.26;75.10
50292;BME280;36190;54.980;73.388;2024-03-06T02:29:00;100337.59;;;-8.19;75.09
50292;BME280;36190;54.980;73.388;2024-03-06T02:31:27;100334.88;;;-8.15;74.82
50292;BME280;36190;54.980;73.388;2024-03-06T02:33:55;100347.66;;;-8.10;74.77
50292;BME280;36190;54.980;73.388;2024-03-06T02:36:24;100345.09;;;-8.11;74.40
50292;BME280;36190;54.980;73.388;2024-03-06T02:38:54;100350.22;;;-8.08;74.35
50292;BME280;36190;54.980;73.388;2024-03-06T02:41:21;100351.66;;;-8.01;74.34
50292;BME280;36190;54.980;73.388;2024-03-06T02:43:49;100350.22;;;-8.08;74.21
50292;BME280;36190;54.980;73.388;2024-03-06T02:46:18;100356.31;;;-8.11;74.04
50292;BME280;36190;54.980;73.388;2024-03-06T02:48:45;100359.91;;;-8.15;74.05
50292;BME280;36190;54.980;73.388;2024-03-06T02:51:18;100354.94;;;-8.21;74.06
50292;BME280;36190;54.980;73.388;2024-03-06T02:53:46;100371.75;;;-8.08;74.11
50292;BME280;36190;54.980;73.388;2024-03-06T02:56:17;100363.53;;;-7.94;74.04
50292;BME280;36190;54.980;73.388;2024-03-06T02:58:45;100363.25;;;-7.84;73.86
50292;BME280;36190;54.980;73.388;2024-03-06T03:01:14;100365.84;;;-7.84;73.34
50292;BME280;36190;54.980;73.388;2024-03-06T03:03:42;100369.25;;;-7.84;73.01
50292;BME280;36190;54.980;73.388;2024-03-06T03:06:10;100366.81;;;-7.89;72.93
50292;BME280;36190;54.980;73.388;2024-03-06T03:08:38;100365.88;;;-7.86;73.00
50292;BME280;36190;54.980;73.388;2024-03-06T03:11:06;100367.75;;;-7.91;72.90
50292;BME280;36190;54.980;73.388;2024-03-06T03:13:38;100368.34;;;-7.83;72.97
50292;BME280;36190;54.980;73.388;2024-03-06T03:16:06;100372.56;;;-7.79;72.80
50292;BME280;36190;54.980;73.388;2024-03-06T03:18:34;100366.16;;;-7.68;72.71
50292;BME280;36190;54.980;73.388;2024-03-06T03:21:01;100363.88;;;-7.52;72.67
50292;BME280;36190;54.980;73.388;2024-03-06T03:23:29;100354.56;;;-7.33;72.23
50292;BME280;36190;54.980;73.388;2024-03-06T03:25:57;100363.66;;;-7.21;71.79
50292;BME280;36190;54.980;73.388;2024-03-06T03:28:24;100365.00;;;-7.10;71.27
50292;BME280;36190;54.980;73.388;2024-03-06T03:30:54;100356.97;;;-7.02;71.04
50292;BME280;36190;54.980;73.388;2024-03-06T03:33:22;100357.91;;;-7.05;70.75
50292;BME280;36190;54.980;73.388;2024-03-06T03:35:50;100360.06;;;-6.93;70.55
50292;BME280;36190;54.980;73.388;2024-03-06T03:38:17;100359.78;;;-6.85;70.31
50292;BME280;36190;54.980;73.388;2024-03-06T03:40:45;100360.50;;;-6.81;70.11
50292;BME280;36190;54.980;73.388;2024-03-06T03:43:13;100360.16;;;-6.72;69.89
50292;BME280;36190;54.980;73.388;2024-03-06T03:45:40;100353.03;;;-6.67;69.68
50292;BME280;36190;54.980;73.388;2024-03-06T03:48:09;100368.50;;;-6.64;69.21
50292;BME280;36190;54.980;73.388;2024-03-06T03:50:38;100359.69;;;-6.59;69.13
50292;BME280;36190;54.980;73.388;2024-03-06T03:53:05;100365.50;;;-6.53;69.14
50292;BME280;36190;54.980;73.388;2024-03-06T03:55:33;100372.25;;;-6.49;68.84
50292;BME280;36190;54.980;73.388;2024-03-06T03:58:01;100376.25;;;-6.40;68.76
50292;BME280;36190;54.980;73.388;2024-03-06T04:00:29;100376.91;;;-6.35;68.36
50292;BME280;36190;54.980;73.388;2024-03-06T04:02:57;100381.69;;;-6.46;68.15
50292;BME280;36190;54.980;73.388;2024-03-06T04:05:26;100381.44;;;-6.62;68.10
50292;BME280;36190;54.980;73.388;2024-03-06T04:07:53;100373.56;;;-6.60;68.52
50292;BME280;36190;54.980;73.388;2024-03-06T04:10:21;100372.44;;;-6.53;68.39
50292;BME280;36190;54.980;73.388;2024-03-06T04:12:49;100374.56;;;-6.41;68.08
50292;BME280;36190;54.980;73.388;2024-03-06T04:15:16;100380.94;;;-6.27;67.91
50292;BME280;36190;54.980;73.388;2024-03-06T04:17:44;100381.69;;;-6.24;67.56
50292;BME280;36190;54.980;73.388;2024-03-06T04:20:12;100376.06;;;-6.13;67.35
50292;BME280;36190;54.980;73.388;2024-03-06T04:22:43;100378.41;;;-6.06;67.16
50292;BME280;36190;54.980;73.388;2024-03-06T04:25:12;100385.09;;;-6.01;66.98
50292;BME280;36190;54.980;73.388;2024-03-06T04:27:40;100382.28;;;-5.96;66.85
50292;BME280;36190;54.980;73.388;2024-03-06T04:30:08;100374.25;;;-5.90;66.71
50292;BME280;36190;54.980;73.388;2024-03-06T04:32:36;100374.97;;;-5.86;66.35
50292;BME280;36190;54.980;73.388;2024-03-06T04:35:05;100378.22;;;-5.81;66.12
50292;BME280;36190;54.980;73.388;2024-03-06T04:37:33;100379.97;;;-5.82;65.97
50292;BME280;36190;54.980;73.388;2024-03-06T04:40:03;100374.72;;;-5.80;66.18
50292;BME280;36190;54.980;73.388;2024-03-06T04:42:34;100377.13;;;-5.75;65.91
50292;BME280;36190;54.980;73.388;2024-03-06T04:45:03;100372.66;;;-5.72;65.71
50292;BME280;36190;54.980;73.388;2024-03-06T04:47:31;100375.94;;;-5.68;65.52
50292;BME280;36190;54.980;73.388;2024-03-06T04:49:59;100378.19;;;-5.59;65.35
50292;BME280;36190;54.980;73.388;2024-03-06T04:52:26;100376.09;;;-5.50;65.27
50292;BME280;36190;54.980;73.388;2024-03-06T04:54:57;100381.03;;;-5.44;65.09
50292;BME280;36190;54.980;73.388;2024-03-06T04:57:26;100373.69;;;-5.34;64.62
50292;BME280;36190;54.980;73.388;2024-03-06T04:59:54;100371.94;;;-5.34;64.48
50292;BME280;36190;54.980;73.388;2024-03-06T05:02:22;100371.13;;;-5.36;64.24
50292;BME280;36190;54.980;73.388;2024-03-06T05:04:51;100361.66;;;-5.37;64.25
50292;BME280;36190;54.980;73.388;2024-03-06T05:07:18;100369.34;;;-5.34;64.11
50292;BME280;36190;54.980;73.388;2024-03-06T05:09:49;100356.19;;;-5.31;64.04
50292;BME280;36190;54.980;73.388;2024-03-06T05:12:16;100362.25;;;-5.30;63.99
50292;BME280;36190;54.980;73.388;2024-03-06T05:14:45;100358.72;;;-5.29;63.82
50292;BME280;36190;54.980;73.388;2024-03-06T05:17:13;100366.06;;;-5.18;63.72
50292;BME280;36190;54.980;73.388;2024-03-06T05:19:41;100360.44;;;-5.09;63.56
50292;BME280;36190;54.980;73.388;2024-03-06T05:22:08;100367.34;;;-5.08;63.42
50292;BME280;36190;54.980;73.388;2024-03-06T05:24:37;100373.06;;;-5.00;63.08
50292;BME280;36190;54.980;73.388;2024-03-06T05:27:05;100367.56;;;-4.93;62.84
50292;BME280;36190;54.980;73.388;2024-03-06T05:29:33;100369.88;;;-4.87;62.58
50292;BME280;36190;54.980;73.388;2024-03-06T05:32:04;100365.31;;;-4.82;62.37
50292;BME280;36190;54.980;73.388;2024-03-06T05:34:33;100369.50;;;-4.78;62.40
50292;BME280;36190;54.980;73.388;2024-03-06T05:37:01;100361.25;;;-4.68;62.17
50292;BME280;36190;54.980;73.388;2024-03-06T05:39:29;100358.66;;;-4.68;61.94
50292;BME280;36190;54.980;73.388;2024-03-06T05:42:00;100359.13;;;-4.60;62.03
50292;BME280;36190;54.980;73.388;2024-03-06T05:44:30;100356.28;;;-4.36;61.86
50292;BME280;36190;54.980;73.388;2024-03-06T05:46:58;100350.94;;;-4.16;61.52
50292;BME280;36190;54.980;73.388;2024-03-06T05:49:28;100351.06;;;-3.99;61.07
50292;BME280;36190;54.980;73.388;2024-03-06T05:51:56;100345.22;;;-3.87;60.67
50292;BME280;36190;54.980;73.388;2024-03-06T05:54:24;100349.63;;;-3.88;60.81
50292;BME280;36190;54.980;73.388;2024-03-06T05:56:52;100344.00;;;-3.80;60.62
50292;BME280;36190;54.980;73.388;2024-03-06T05:59:20;100347.31;;;-3.76;60.57
50292;BME280;36190;54.980;73.388;2024-03-06T06:01:48;100338.25;;;-3.69;60.49
50292;BME280;36190;54.980;73.388;2024-03-06T06:04:16;100339.22;;;-3.54;60.58
50292;BME280;36190;54.980;73.388;2024-03-06T06:06:45;100345.66;;;-3.26;60.21
50292;BME280;36190;54.980;73.388;2024-03-06T06:09:13;100342.88;;;-3.07;59.77
50292;BME280;36190;54.980;73.388;2024-03-06T06:11:44;100345.22;;;-2.84;59.47
50292;BME280;36190;54.980;73.388;2024-03-06T06:14:13;100350.97;;;-2.61;59.08
50292;BME280;36190;54.980;73.388;2024-03-06T06:16:42;100332.22;;;-2.70;58.41
50292;BME280;36190;54.980;73.388;2024-03-06T06:19:10;100357.94;;;-2.46;58.33
50292;BME280;36190;54.980;73.388;2024-03-06T06:21:38;100362.22;;;-2.29;58.00
50292;BME280;36190;54.980;73.388;2024-03-06T06:24:08;100362.44;;;-2.17;57.71
50292;BME280;36190;54.980;73.388;2024-03-06T06:26:35;100357.63;;;-2.09;57.34
50292;BME280;36190;54.980;73.388;2024-03-06T06:29:03;100358.97;;;-2.02;57.30
50292;BME280;36190;54.980;73.388;2024-03-06T06:31:31;100350.69;;;-1.94;57.20
50292;BME280;36190;54.980;73.388;2024-03-06T06:33:58;100353.41;;;-1.96;56.92
50292;BME280;36190;54.980;73.388;2024-03-06T06:36:26;100346.81;;;-2.03;56.95
50292;BME280;36190;54.980;73.388;2024-03-06T06:38:54;100347.34;;;-2.12;57.14
50292;BME280;36190;54.980;73.388;2024-03-06T06:41:23;100348.88;;;-2.08;57.10
50292;BME280;36190;54.980;73.388;2024-03-06T06:43:51;100337.34;;;-1.89;57.01
50292;BME280;36190;54.980;73.388;2024-03-06T06:46:19;100334.19;;;-1.80;56.76
50292;BME280;36190;54.980;73.388;2024-03-06T06:48:47;100332.91;;;-1.73;56.54
50292;BME280;36190;54.980;73.388;2024-03-06T06:51:16;100326.66;;;-1.70;56.41
50292;BME280;36190;54.980;73.388;2024-03-06T06:53:43;100327.88;;;-1.61;56.19
50292;BME280;36190;54.980;73.388;2024-03-06T06:56:11;100323.41;;;-1.45;56.06
50292;BME280;36190;54.980;73.388;2024-03-06T06:58:40;100326.22;;;-1.19;55.63
50292;BME280;36190;54.980;73.388;2024-03-06T07:01:09;100323.78;;;-0.93;55.21
50292;BME280;36190;54.980;73.388;2024-03-06T07:03:37;100326.38;;;-0.78;54.74
50292;BME280;36190;54.980;73.388;2024-03-06T07:06:05;100326.63;;;-0.68;54.73
50292;BME280;36190;54.980;73.388;2024-03-06T07:08:33;100327.25;;;-0.50;54.39
50292;BME280;36190;54.980;73.388;2024-03-06T07:11:18;100320.91;;;-0.33;54.02
50292;BME280;36190;54.980;73.388;2024-03-06T07:13:48;100322.09;;;-0.24;53.46
50292;BME280;36190;54.980;73.388;2024-03-06T07:16:16;100317.75;;;-0.11;53.35
50292;BME280;36190;54.980;73.388;2024-03-06T07:18:43;100321.34;;;0.01;53.08
50292;BME280;36190;54.980;73.388;2024-03-06T07:21:12;100322.72;;;0.07;52.87
50292;BME280;36190;54.980;73.388;2024-03-06T07:23:39;100321.13;;;0.04;52.73
50292;BME280;36190;54.980;73.388;2024-03-06T07:26:07;100317.97;;;-0.01;52.69
50292;BME280;36190;54.980;73.388;2024-03-06T07:28:35;100307.03;;;-0.08;52.70
50292;BME280;36190;54.980;73.388;2024-03-06T07:31:04;100312.28;;;-0.08;52.68
50292;BME280;36190;54.980;73.388;2024-03-06T07:33:32;100314.91;;;-0.08;52.96
50292;BME280;36190;54.980;73.388;2024-03-06T07:36:04;100307.44;;;-0.14;52.98
50292;BME280;36190;54.980;73.388;2024-03-06T07:38:32;100304.31;;;-0.19;52.99
50292;BME280;36190;54.980;73.388;2024-03-06T07:40:59;100310.69;;;-0.23;53.03
50292;BME280;36190;54.980;73.388;2024-03-06T07:43:27;100317.81;;;-0.25;53.23
50292;BME280;36190;54.980;73.388;2024-03-06T07:45:55;100316.56;;;-0.20;52.98
50292;BME280;36190;54.980;73.388;2024-03-06T07:48:24;100301.34;;;-0.28;52.95
50292;BME280;36190;54.980;73.388;2024-03-06T07:50:52;100306.38;;;-0.24;52.76
50292;BME280;36190;54.980;73.388;2024-03-06T07:53:20;100304.31;;;-0.19;52.85
50292;BME280;36190;54.980;73.388;2024-03-06T07:55:47;100301.47;;;-0.16;52.77
50292;BME280;36190;54.980;73.388;2024-03-06T07:58:15;100306.50;;;-0.13;52.85
50292;BME280;36190;54.980;73.388;2024-03-06T08:00:43;100299.69;;;-0.16;52.60
50292;BME280;36190;54.980;73.388;2024-03-06T08:03:11;100293.13;;;-0.36;52.90
50292;BME280;36190;54.980;73.388;2024-03-06T08:05:41;100291.25;;;-0.34;53.29
50292;BME280;36190;54.980;73.388;2024-03-06T08:08:09;100287.28;;;-0.26;53.33
50292;BME280;36190;54.980;73.388;2024-03-06T08:10:36;100279.75;;;-0.18;53.28
50292;BME280;36190;54.980;73.388;2024-03-06T08:13:04;100282.22;;;-0.30;53.14
50292;BME280;36190;54.980;73.388;2024-03-06T08:15:32;100280.75;;;-0.34;53.44
50292;BME280;36190;54.980;73.388;2024-03-06T08:17:59;100278.47;;;-0.25;53.59
50292;BME280;36190;54.980;73.388;2024-03-06T08:20:27;100284.38;;;-0.09;53.58
50292;BME280;36190;54.980;73.388;2024-03-06T08:22:56;100271.38;;;0.03;53.45
50292;BME280;36190;54.980;73.388;2024-03-06T08:25:24;100276.13;;;0.10;53.36
50292;BME280;36190;54.980;73.388;2024-03-06T08:27:52;100265.50;;;0.12;53.19
50292;BME280;36190;54.980;73.388;2024-03-06T08:30:20;100270.56;;;0.15;53.20
50292;BME280;36190;54.980;73.388;2024-03-06T08:32:47;100269.72;;;0.15;53.17
50292;BME280;36190;54.980;73.388;2024-03-06T08:35:15;100265.84;;;0.20;53.36
50292;BME280;36190;54.980;73.388;2024-03-06T08:37:45;100268.19;;;0.38;53.34
50292;BME280;36190;54.980;73.388;2024-03-06T08:40:15;100268.66;;;0.56;52.97
50292;BME280;36190;54.980;73.388;2024-03-06T08:42:43;100263.84;;;0.63;52.93
50292;BME280;36190;54.980;73.388;2024-03-06T08:45:13;100259.41;;;0.76;52.70
50292;BME280;36190;54.980;73.388;2024-03-06T08:47:43;100253.72;;;0.82;52.76
50292;BME280;36190;54.980;73.388;2024-03-06T08:50:12;100246.22;;;0.89;52.88
50292;BME280;36190;54.980;73.388;2024-03-06T08:52:40;100256.84;;;1.01;52.66
50292;BME280;36190;54.980;73.388;2024-03-06T08:55:08;100262.47;;;1.07;52.46
50292;BME280;36190;54.980;73.388;2024-03-06T08:57:38;100257.47;;;1.04;52.24
50292;BME280;36190;54.980;73.388;2024-03-06T09:00:08;100250.88;;;0.86;52.59
50292;BME280;36190;54.980;73.388;2024-03-06T09:02:36;100262.44;;;0.83;52.87
50292;BME280;36190;54.980;73.388;2024-03-06T09:05:05;100259.06;;;0.81;53.17
50292;BME280;36190;54.980;73.388;2024-03-06T09:07:32;100257.19;;;0.83;53.18
50292;BME280;36190;54.980;73.388;2024-03-06T09:10:04;100256.44;;;0.81;53.20
50292;BME280;36190;54.980;73.388;2024-03-06T09:12:32;100250.56;;;0.77;53.39
50292;BME280;36190;54.980;73.388;2024-03-06T09:15:02;100245.47;;;0.63;53.07
50292;BME280;36190;54.980;73.388;2024-03-06T09:17:30;100244.31;;;0.54;53.62
50292;BME280;36190;54.980;73.388;2024-03-06T09:19:58;100246.84;;;0.43;53.92
50292;BME280;36190;54.980;73.388;2024-03-06T09:22:33;100246.22;;;0.26;54.17
50292;BME280;36190;54.980;73.388;2024-03-06T09:25:02;100241.81;;;0.13;54.52
50292;BME280;36190;54.980;73.388;2024-03-06T09:27:29;100243.69;;;-0.02;54.86
50292;BME280;36190;54.980;73.388;2024-03-06T09:29:57;100252.03;;;-0.22;55.07
50292;BME280;36190;54.980;73.388;2024-03-06T09:32:27;100251.38;;;-0.39;55.41
50292;BME280;36190;54.980;73.388;2024-03-06T09:34:54;100248.72;;;-0.52;55.74
50292;BME280;36190;54.980;73.388;2024-03-06T09:37:22;100246.91;;;-0.64;56.08
50292;BME280;36190;54.980;73.388;2024-03-06T09:39:50;100238.44;;;-0.82;56.47
50292;BME280;36190;54.980;73.388;2024-03-06T09:42:17;100244.81;;;-0.87;56.59
50292;BME280;36190;54.980;73.388;2024-03-06T09:44:45;100244.44;;;-0.95;57.06
50292;BME280;36190;54.980;73.388;2024-03-06T09:47:14;100252.41;;;-0.97;57.09
50292;BME280;36190;54.980;73.388;2024-03-06T09:49:43;100240.66;;;-1.04;57.24
50292;BME280;36190;54.980;73.388;2024-03-06T09:52:11;100242.13;;;-1.00;57.28
50292;BME280;36190;54.980;73.388;2024-03-06T09:54:40;100254.19;;;-0.97;57.56
50292;BME280;36190;54.980;73.388;2024-03-06T09:57:08;100240.72;;;-0.91;57.26
50292;BME280;36190;54.980;73.388;2024-03-06T09:59:36;100239.03;;;-0.92;57.45
50292;BME280;36190;54.980;73.388;2024-03-06T10:02:19;100242.59;;;-0.93;57.57
50292;BME280;36190;54.980;73.388;2024-03-06T10:04:57;100245.22;;;-0.93;57.53
50292;BME280;36190;54.980;73.388;2024-03-06T10:07:25;100238.38;;;-0.95;57.60
50292;BME280;36190;54.980;73.388;2024-03-06T10:09:54;100247.28;;;-0.98;57.68
50292;BME280;36190;54.980;73.388;2024-03-06T10:12:23;100244.50;;;-1.09;57.78
50292;BME280;36190;54.980;73.388;2024-03-06T10:14:51;100247.66;;;-1.19;58.32
50292;BME280;36190;54.980;73.388;2024-03-06T10:17:20;100254.63;;;-1.32;58.52
50292;BME280;36190;54.980;73.388;2024-03-06T10:19:49;100250.03;;;-1.43;58.83
50292;BME280;36190;54.980;73.388;2024-03-06T10:22:21;100255.00;;;-1.53;59.03
50292;BME280;36190;54.980;73.388;2024-03-06T10:24:50;100249.75;;;-1.68;59.43
50292;BME280;36190;54.980;73.388;2024-03-06T10:27:22;100251.97;;;-1.76;59.79
50292;BME280;36190;54.980;73.388;2024-03-06T10:30:02;100243.66;;;-1.83;60.68
50292;BME280;36190;54.980;73.388;2024-03-06T10:32:30;100243.00;;;-1.86;60.61
50292;BME280;36190;54.980;73.388;2024-03-06T10:34:58;100242.19;;;-1.87;60.72
50292;BME280;36190;54.980;73.388;2024-03-06T10:37:29;100232.66;;;-1.88;60.77
50292;BME280;36190;54.980;73.388;2024-03-06T10:39:58;100225.84;;;-1.90;60.87
50292;BME280;36190;54.980;73.388;2024-03-06T10:42:33;100221.44;;;-1.90;60.88
50292;BME280;36190;54.980;73.388;2024-03-06T10:45:05;100223.31;;;-1.92;61.12
50292;BME280;36190;54.980;73.388;2024-03-06T10:47:33;100219.19;;;-1.96;61.16
50292;BME280;36190;54.980;73.388;2024-03-06T10:50:04;100220.31;;;-2.00;61.37
50292;BME280;36190;54.980;73.388;2024-03-06T10:52:38;100223.78;;;-2.00;61.80
50292;BME280;36190;54.980;73.388;2024-03-06T10:55:08;100214.22;;;-2.01;62.03
50292;BME280;36190;54.980;73.388;2024-03-06T10:57:36;100221.91;;;-1.98;62.15
50292;BME280;36190;54.980;73.388;2024-03-06T11:00:05;100224.31;;;-1.95;62.29
50292;BME280;36190;54.980;73.388;2024-03-06T11:02:34;100222.72;;;-1.97;62.31
50292;BME280;36190;54.980;73.388;2024-03-06T11:05:04;100223.13;;;-2.03;62.74
50292;BME280;36190;54.980;73.388;2024-03-06T11:07:32;100226.16;;;-2.11;62.77
50292;BME280;36190;54.980;73.388;2024-03-06T11:10:01;100223.00;;;-2.16;62.93
50292;BME280;36190;54.980;73.388;2024-03-06T11:12:36;100211.88;;;-2.20;63.11
50292;BME280;36190;54.980;73.388;2024-03-06T11:15:14;100211.41;;;-2.12;63.08
50292;BME280;36190;54.980;73.388;2024-03-06T11:17:42;100217.84;;;-2.18;63.00
50292;BME280;36190;54.980;73.388;2024-03-06T11:20:17;100219.81;;;-2.22;63.43
50292;BME280;36190;54.980;73.388;2024-03-06T11:23:08;100216.16;;;-2.19;63.66
50292;BME280;36190;54.980;73.388;2024-03-06T11:26:01;100215.22;;;-2.18;64.01
50292;BME280;36190;54.980;73.388;2024-03-06T11:28:30;100211.50;;;-2.28;63.69
50292;BME280;36190;54.980;73.388;2024-03-06T11:31:00;100215.47;;;-2.37;63.77
50292;BME280;36190;54.980;73.388;2024-03-06T11:33:37;100212.59;;;-2.32;64.35
50292;BME280;36190;54.980;73.388;2024-03-06T11:36:16;100207.69;;;-2.39;64.64
50292;BME280;36190;54.980;73.388;2024-03-06T11:38:50;100209.72;;;-2.58;64.56
50292;BME280;36190;54.980;73.388;2024-03-06T11:41:21;100210.09;;;-2.81;64.90
50292;BME280;36190;54.980;73.388;2024-03-06T11:43:51;100207.59;;;-2.98;65.23
50292;BME280;36190;54.980;73.388;2024-03-06T11:46:22;100203.97;;;-3.12;65.55
50292;BME280;36190;54.980;73.388;2024-03-06T11:48:53;100177.09;;;-3.30;66.09
50292;BME280;36190;54.980;73.388;2024-03-06T11:51:22;100190.91;;;-3.12;66.19
50292;BME280;36190;54.980;73.388;2024-03-06T11:53:50;100193.28;;;-3.07;66.14
50292;BME280;36190;54.980;73.388;2024-03-06T11:56:20;100195.81;;;-3.06;66.12
50292;BME280;36190;54.980;73.388;2024-03-06T11:58:48;100189.66;;;-3.05;66.36
50292;BME280;36190;54.980;73.388;2024-03-06T12:01:16;100182.38;;;-2.99;66.51
50292;BME280;36190;54.980;73.388;2024-03-06T12:03:44;100182.56;;;-3.02;66.53
50292;BME280;36190;54.980;73.388;2024-03-06T12:06:12;100187.03;;;-3.05;66.69
50292;BME280;36190;54.980;73.388;2024-03-06T12:08:40;100182.75;;;-3.06;67.05
50292;BME280;36190;54.980;73.388;2024-03-06T12:11:08;100177.34;;;-3.02;67.05
50292;BME280;36190;54.980;73.388;2024-03-06T12:13:37;100176.59;;;-3.05;67.38
50292;BME280;36190;54.980;73.388;2024-03-06T12:16:06;100163.88;;;-3.11;67.25
50292;BME280;36190;54.980;73.388;2024-03-06T12:18:34;100173.91;;;-3.19;67.43
50292;BME280;36190;54.980;73.388;2024-03-06T12:21:02;100173.06;;;-3.20;67.80
50292;BME280;36190;54.980;73.388;2024-03-06T12:23:32;100181.56;;;-3.16;67.81
50292;BME280;36190;54.980;73.388;2024-03-06T12:26:04;100171.91;;;-3.14;68.01
50292;BME280;36190;54.980;73.388;2024-03-06T12:28:32;100167.84;;;-3.20;68.00
50292;BME280;36190;54.980;73.388;2024-03-06T12:31:04;100168.59;;;-3.18;68.22
50292;BME280;36190;54.980;73.388;2024-03-06T12:33:33;100178.94;;;-3.16;68.19
50292;BME280;36190;54.980;73.388;2024-03-06T12:36:05;100179.97;;;-3.19;68.63
50292;BME280;36190;54.980;73.388;2024-03-06T12:38:36;100173.91;;;-3.19;68.49
50292;BME280;36190;54.980;73.388;2024-03-06T12:41:04;100159.69;;;-3.29;68.53
50292;BME280;36190;54.980;73.388;2024-03-06T12:43:32;100173.16;;;-3.21;68.63
50292;BME280;36190;54.980;73.388;2024-03-06T12:46:00;100168.88;;;-3.22;68.60
50292;BME280;36190;54.980;73.388;2024-03-06T12:48:30;100171.81;;;-3.28;68.55